Time;durP1;ratioP1;P1;durP2;ratioP2;P2;SDS_P1;SDS_P2;PMS_P1;PMS_P2;Temp;Humidity;BMP_temperature;BMP_pressure;BME280_temperature;BME280_humidity;BME280_pressure;Samples;Min_cycle;Max_cycle;Signal;HPM_P1;HPM_P2
2023/10/20 00:02:32;;;;;;;9.50;8.30;;;;;;;8.00;86.37;98799.18;109205;275;39688;-68
2023/10/20 00:05:10;;;;;;;10.80;9.20;;;;;;;8.05;86.59;98799.48;109178;275;38310;-69
2023/10/20 00:07:55;;;;;;;10.30;9.30;;;;;;;8.05;86.65;98791.64;109209;275;38756;-67
2023/10/20 00:10:41;;;;;;;10.40;9.40;;;;;;;8.06;86.97;98782.38;109188;275;38473;-67
2023/10/20 00:13:18;;;;;;;10.30;9.30;;;;;;;8.02;86.69;98775.63;109171;275;38742;-67
2023/10/20 00:15:57;;;;;;;9.60;8.30;;;;;;;8.03;86.96;98776.30;109160;275;38345;-67
2023/10/20 00:19:01;;;;;;;8.00;7.20;;;;;;;8.02;86.82;98778.23;109081;275;172861;-67
2023/10/20 00:21:45;;;;;;;8.90;8.10;;;;;;;8.08;87.17;98783.48;109162;275;38563;-67
2023/10/20 00:24:25;;;;;;;9.30;8.50;;;;;;;8.12;87.01;98790.74;109191;275;38695;-65
2023/10/20 00:27:03;;;;;;;9.50;8.20;;;;;;;8.11;87.12;98794.08;109085;275;38998;-66
2023/10/20 00:29:42;;;;;;;8.70;7.70;;;;;;;8.13;87.09;98791.05;109152;275;38232;-69
2023/10/20 00:32:26;;;;;;;8.10;7.40;;;;;;;8.16;87.10;98790.69;109109;275;39624;-69
2023/10/20 00:35:08;;;;;;;8.40;7.60;;;;;;;8.21;87.06;98793.92;109017;275;38771;-66
2023/10/20 00:37:48;;;;;;;8.50;7.60;;;;;;;8.23;86.96;98796.59;109130;275;39291;-67
2023/10/20 00:40:28;;;;;;;8.90;8.00;;;;;;;8.21;87.27;98793.38;109174;275;38494;-66
2023/10/20 00:43:06;;;;;;;8.60;7.80;;;;;;;8.21;87.11;98790.08;109138;275;38414;-71
2023/10/20 00:45:41;;;;;;;8.40;7.50;;;;;;;8.20;87.38;98790.13;109065;275;172976;-69
2023/10/20 00:48:17;;;;;;;8.70;7.80;;;;;;;8.19;87.14;98787.44;109220;275;39948;-69
2023/10/20 00:50:52;;;;;;;9.20;8.30;;;;;;;8.19;87.32;98784.83;109188;275;39986;-71
2023/10/20 00:53:25;;;;;;;10.10;9.10;;;;;;;8.17;87.36;98781.45;109186;275;40055;-69
2023/10/20 00:56:01;;;;;;;11.10;9.80;;;;;;;8.16;87.60;98781.64;109177;275;38931;-69
2023/10/20 00:58:41;;;;;;;11.40;10.20;;;;;;;8.16;87.76;98782.72;109141;275;38619;-66
2023/10/20 01:01:24;;;;;;;14.40;10.80;;;;;;;8.16;88.02;98782.02;109158;275;39611;-67
2023/10/20 01:04:00;;;;;;;19.40;11.40;;;;;;;8.14;87.75;98778.30;109171;275;39986;-67
2023/10/20 01:06:38;;;;;;;16.50;11.80;;;;;;;8.15;87.95;98771.13;109106;275;38782;-66
2023/10/20 01:09:16;;;;;;;11.30;10.20;;;;;;;8.13;87.87;98770.02;109212;275;38212;-68
2023/10/20 01:11:55;;;;;;;10.70;9.70;;;;;;;8.13;87.89;98765.68;109167;275;38972;-71
2023/10/20 01:14:37;;;;;;;9.40;8.40;;;;;;;8.13;87.98;98756.65;109196;275;175777;-66
2023/10/20 01:17:19;;;;;;;9.30;8.20;;;;;;;8.12;88.12;98743.67;109227;275;38398;-66
2023/10/20 01:20:00;;;;;;;8.40;7.60;;;;;;;8.14;88.04;98740.27;109297;275;38327;-67
2023/10/20 01:22:40;;;;;;;8.70;7.80;;;;;;;8.17;88.14;98739.77;109086;275;39761;-69
2023/10/20 01:25:22;;;;;;;8.60;7.70;;;;;;;8.17;88.33;98733.67;109341;275;38439;-69
2023/10/20 01:28:01;;;;;;;8.80;7.90;;;;;;;8.14;88.21;98720.14;109389;275;38471;-67
2023/10/20 01:30:44;;;;;;;9.10;8.10;;;;;;;8.13;88.38;98706.30;109402;275;38162;-67
2023/10/20 01:33:22;;;;;;;9.80;8.00;;;;;;;8.13;88.60;98706.27;109415;275;38478;-69
2023/10/20 01:35:57;;;;;;;9.60;8.20;;;;;;;8.13;88.61;98708.05;109036;275;40462;-69
2023/10/20 01:38:35;;;;;;;11.60;8.90;;;;;;;8.15;88.58;98703.41;109343;275;38696;-67
2023/10/20 01:41:12;;;;;;;9.50;8.40;;;;;;;8.16;88.66;98697.92;109348;275;39649;-66
2023/10/20 01:43:53;;;;;;;8.50;7.60;;;;;;;8.17;88.77;98694.25;109306;275;38249;-67
2023/10/20 01:46:36;;;;;;;7.60;6.90;;;;;;;8.18;88.60;98692.11;109354;275;38446;-66
2023/10/20 01:49:13;;;;;;;8.40;7.60;;;;;;;8.20;88.71;98693.57;109349;275;38869;-70
2023/10/20 01:51:48;;;;;;;9.20;8.40;;;;;;;8.20;88.80;98698.45;109317;275;40107;-69
2023/10/20 01:54:25;;;;;;;8.30;7.50;;;;;;;8.17;88.61;98697.19;109373;275;39348;-70
2023/10/20 01:57:01;;;;;;;7.70;7.00;;;;;;;8.20;88.68;98709.01;109335;275;38869;-70
2023/10/20 01:59:36;;;;;;;7.90;7.10;;;;;;;8.23;88.71;98716.35;109371;275;38853;-69
2023/10/20 02:02:11;;;;;;;7.70;7.00;;;;;;;8.24;88.75;98724.42;109382;275;39231;-70
2023/10/20 02:04:55;;;;;;;8.00;7.30;;;;;;;8.26;88.82;98722.94;109351;275;38443;-66
2023/10/20 02:07:45;;;;;;;8.90;8.00;;;;;;;8.28;88.82;98725.95;109351;275;38716;-68
2023/10/20 02:10:25;;;;;;;8.00;7.20;;;;;;;8.30;88.81;98718.73;109318;275;38533;-67
2023/10/20 02:13:05;;;;;;;8.70;7.70;;;;;;;8.28;88.71;98715.17;109129;275;175520;-67
2023/10/20 02:15:48;;;;;;;7.50;6.80;;;;;;;8.25;88.70;98714.29;109221;275;38170;-67
2023/10/20 02:18:26;;;;;;;8.50;7.70;;;;;;;8.29;88.76;98708.21;109255;275;38461;-69
2023/10/20 02:21:05;;;;;;;8.40;7.50;;;;;;;8.30;88.76;98702.77;109256;275;38470;-67
2023/10/20 02:23:45;;;;;;;10.00;8.60;;;;;;;8.29;88.79;98700.18;109268;275;38271;-67
2023/10/20 02:26:26;;;;;;;10.10;8.80;;;;;;;8.27;88.70;98692.84;109201;275;38234;-67
2023/10/20 02:29:06;;;;;;;11.60;8.20;;;;;;;8.23;88.78;98691.30;109225;275;39772;-67
2023/10/20 02:31:49;;;;;;;11.90;9.10;;;;;;;8.22;88.87;98692.03;109190;275;38307;-67
2023/10/20 02:34:29;;;;;;;13.90;11.30;;;;;;;8.22;88.91;98686.46;109204;275;38259;-69
2023/10/20 02:37:12;;;;;;;17.90;12.40;;;;;;;8.21;89.06;98685.52;109147;275;39946;-70
2023/10/20 02:39:50;;;;;;;19.00;11.90;;;;;;;8.19;89.05;98691.34;109174;272;38368;-66
2023/10/20 02:42:32;;;;;;;11.80;9.30;;;;;;;8.18;89.25;98693.14;109204;275;38429;-69
2023/10/20 02:45:12;;;;;;;12.90;9.70;;;;;;;8.16;89.43;98694.46;109198;275;38442;-67
2023/10/20 02:47:47;;;;;;;12.30;9.80;;;;;;;8.16;89.41;98685.60;109233;275;38390;-69
2023/10/20 02:50:22;;;;;;;11.10;9.50;;;;;;;8.17;89.63;98677.74;108393;276;811729;-69
2023/10/20 02:53:03;;;;;;;11.60;9.00;;;;;;;8.16;89.48;98676.27;109193;275;38169;-67
2023/10/20 02:55:43;;;;;;;9.30;7.70;;;;;;;8.15;89.76;98681.35;109173;275;38224;-66
2023/10/20 02:58:23;;;;;;;8.80;8.00;;;;;;;8.13;89.59;98689.98;109197;275;39335;-69
2023/10/20 03:01:05;;;;;;;7.30;6.60;;;;;;;8.15;89.70;98691.91;109190;275;38230;-69
2023/10/20 03:03:42;;;;;;;8.20;7.50;;;;;;;8.18;89.74;98689.70;109204;275;38480;-69
2023/10/20 03:06:22;;;;;;;7.20;6.50;;;;;;;8.18;89.69;98685.50;109229;275;38352;-69
2023/10/20 03:08:56;;;;;;;6.80;6.20;;;;;;;8.14;89.68;98681.92;109317;275;38552;-67
2023/10/20 03:11:32;;;;;;;7.10;6.40;;;;;;;8.10;89.52;98686.33;109203;275;39585;-66
2023/10/20 03:14:07;;;;;;;7.40;6.60;;;;;;;8.11;89.58;98689.54;109265;275;39007;-71
2023/10/20 03:16:43;;;;;;;7.20;6.50;;;;;;;8.14;89.69;98692.70;109047;275;172848;-70
2023/10/20 03:19:17;;;;;;;6.80;6.10;;;;;;;8.12;89.65;98693.81;109191;275;38519;-69
2023/10/20 03:21:55;;;;;;;6.40;5.80;;;;;;;8.11;89.71;98691.59;109154;275;39594;-69
2023/10/20 03:24:36;;;;;;;5.90;5.40;;;;;;;8.11;89.68;98694.04;109064;275;41327;-66
2023/10/20 03:27:16;;;;;;;5.60;5.10;;;;;;;8.09;89.74;98679.76;109138;275;39312;-66
2023/10/20 03:29:55;;;;;;;6.80;6.10;;;;;;;8.08;89.96;98677.90;109224;275;38153;-69
2023/10/20 03:32:35;;;;;;;5.80;5.20;;;;;;;8.05;90.01;98682.74;109195;275;38481;-68
2023/10/20 03:35:12;;;;;;;5.80;5.20;;;;;;;8.01;89.94;98684.19;109199;275;39641;-66
2023/10/20 03:37:54;;;;;;;5.60;5.10;;;;;;;7.98;90.16;98683.30;109140;275;39071;-70
2023/10/20 03:40:36;;;;;;;5.70;5.20;;;;;;;7.95;90.16;98677.92;109151;275;40013;-69
2023/10/20 03:43:11;;;;;;;5.20;4.80;;;;;;;7.99;90.47;98668.12;109253;275;38214;-66
2023/10/20 03:45:51;;;;;;;5.20;4.70;;;;;;;8.01;90.34;98661.23;109150;275;38347;-66
2023/10/20 03:48:33;;;;;;;5.00;4.60;;;;;;;8.01;90.35;98669.59;109230;275;38604;-66
2023/10/20 03:51:21;;;;;;;5.60;5.00;;;;;;;8.03;90.35;98677.14;109202;275;39217;-67
2023/10/20 03:53:56;;;;;;;5.00;4.00;;;;;;;8.00;90.22;98678.52;109219;275;39926;-69
2023/10/20 03:56:34;;;;;;;5.40;4.80;;;;;;;8.02;90.26;98673.52;109153;275;38928;-70
2023/10/20 03:59:11;;;;;;;4.90;4.40;;;;;;;8.05;90.32;98668.33;109228;275;38776;-70
2023/10/20 04:01:48;;;;;;;4.30;3.90;;;;;;;8.02;90.22;98663.44;109275;275;39025;-70
2023/10/20 04:04:23;;;;;;;3.80;3.30;;;;;;;7.97;90.02;98664.24;109148;275;39642;-69
2023/10/20 04:06:58;;;;;;;3.40;3.10;;;;;;;7.95;89.88;98665.38;109173;275;38504;-69
2023/10/20 04:09:36;;;;;;;3.00;2.70;;;;;;;7.89;89.56;98662.27;109169;275;38427;-66
2023/10/20 04:12:16;;;;;;;5.00;2.70;;;;;;;7.88;89.73;98657.10;109124;275;38281;-66
2023/10/20 04:14:58;;;;;;;2.80;2.60;;;;;;;7.82;89.38;98663.67;108980;275;38182;-67
2023/10/20 04:17:38;;;;;;;3.10;2.20;;;;;;;7.75;89.47;98668.91;109189;275;38229;-69
2023/10/20 04:20:20;;;;;;;2.60;2.30;;;;;;;7.72;89.62;98669.41;109163;275;38449;-69
2023/10/20 04:22:58;;;;;;;2.50;2.30;;;;;;;7.68;89.72;98667.72;109191;275;38703;-67
2023/10/20 04:25:52;;;;;;;2.90;2.60;;;;;;;7.64;89.73;98671.91;109230;275;38467;-67
2023/10/20 04:28:32;;;;;;;2.40;2.20;;;;;;;7.59;89.72;98676.02;109196;275;38226;-67
2023/10/20 04:49:10;;;;;;;2.60;2.10;;;;;;;7.39;89.87;98684.02;109221;275;38484;-69
2023/10/20 04:52:05;;;;;;;3.40;1.90;;;;;;;7.32;89.80;98681.94;109338;275;38473;-68
2023/10/20 04:54:50;;;;;;;2.30;1.90;;;;;;;7.31;90.00;98683.41;109399;275;38445;-66
2023/10/20 04:57:50;;;;;;;2.70;2.20;;;;;;;7.31;89.95;98686.54;109359;275;38674;-66
2023/10/20 05:00:36;;;;;;;3.20;2.90;;;;;;;7.26;89.89;98685.73;109325;275;40002;-70
2023/10/20 05:03:22;;;;;;;4.20;3.10;;;;;;;7.24;89.98;98697.98;109437;275;38333;-69
2023/10/20 05:06:22;;;;;;;3.50;3.20;;;;;;;7.23;90.15;98704.60;109331;275;39858;-69
2023/10/20 05:08:58;;;;;;;3.30;2.90;;;;;;;7.21;90.07;98707.66;109389;275;38776;-67
2023/10/20 05:11:38;;;;;;;2.60;2.10;;;;;;;7.23;90.18;98712.08;109399;275;38458;-66
2023/10/20 05:14:18;;;;;;;2.60;2.30;;;;;;;7.17;89.90;98711.48;109333;275;38457;-67
2023/10/20 05:17:04;;;;;;;3.30;2.70;;;;;;;7.13;89.90;98702.16;109389;275;38474;-65
2023/10/20 05:19:44;;;;;;;5.00;2.80;;;;;;;7.12;90.08;98699.61;109401;275;38321;-68
2023/10/20 05:22:19;;;;;;;3.20;2.90;;;;;;;7.09;90.06;98692.66;109413;275;39366;-70
2023/10/20 05:25:00;;;;;;;3.40;3.10;;;;;;;7.07;90.13;98692.05;109475;275;38700;-69
2023/10/20 05:27:34;;;;;;;3.60;2.80;;;;;;;7.10;90.18;98694.71;109360;275;172570;-68
2023/10/20 05:30:14;;;;;;;3.40;3.00;;;;;;;7.11;90.17;98701.05;109380;275;40326;-69
2023/10/20 05:32:53;;;;;;;3.90;3.30;;;;;;;7.11;89.94;98703.47;109431;275;38159;-67
2023/10/20 05:35:32;;;;;;;5.80;4.30;;;;;;;7.10;90.01;98700.39;109368;275;40001;-66
2023/10/20 05:38:14;;;;;;;4.00;3.60;;;;;;;7.08;89.94;98700.69;109364;275;39352;-66
2023/10/20 05:41:01;;;;;;;5.50;3.70;;;;;;;7.04;89.95;98694.85;109331;275;39434;-66
2023/10/20 05:43:36;;;;;;;7.80;5.70;;;;;;;7.03;90.02;98700.11;109371;275;38592;-68
2023/10/20 05:46:18;;;;;;;12.90;8.40;;;;;;;7.00;90.02;98693.84;109350;275;39426;-69
2023/10/20 05:49:01;;;;;;;12.70;7.60;;;;;;;7.02;90.26;98691.30;109331;275;38132;-68
2023/10/20 05:51:45;;;;;;;7.00;5.90;;;;;;;7.03;90.33;98699.58;109345;275;38660;-67
2023/10/20 05:54:23;;;;;;;10.10;6.30;;;;;;;6.98;90.27;98704.29;109361;275;38176;-67
2023/10/20 05:57:03;;;;;;;19.20;11.50;;;;;;;6.94;90.15;98713.88;109314;275;38160;-66
2023/10/20 05:59:42;;;;;;;15.80;8.10;;;;;;;6.91;90.25;98713.48;109262;275;38241;-69
2023/10/20 06:02:18;;;;;;;8.90;5.90;;;;;;;6.89;90.41;98720.73;109028;276;40364;-72
2023/10/20 06:04:54;;;;;;;4.10;3.30;;;;;;;6.90;90.50;98720.66;109354;275;38191;-72
2023/10/20 06:07:30;;;;;;;8.20;5.40;;;;;;;6.93;90.49;98719.98;109408;275;38333;-69
2023/10/20 06:10:04;;;;;;;4.30;3.00;;;;;;;6.95;90.59;98731.00;109336;275;39003;-68
2023/10/20 06:12:40;;;;;;;4.80;3.00;;;;;;;6.91;90.51;98731.35;109358;275;39638;-69
2023/10/20 06:15:15;;;;;;;3.30;2.40;;;;;;;6.90;90.48;98734.88;109358;275;39794;-69
2023/10/20 06:17:57;;;;;;;4.10;3.00;;;;;;;6.84;90.55;98734.63;109294;275;38174;-67
2023/10/20 06:20:41;;;;;;;2.90;2.30;;;;;;;6.82;90.51;98741.52;109231;275;38665;-66
2023/10/20 06:23:16;;;;;;;3.40;2.20;;;;;;;6.88;90.77;98749.52;109272;275;38224;-69
2023/10/20 06:25:50;;;;;;;3.30;2.40;;;;;;;6.89;90.89;98746.88;109276;275;38183;-70
2023/10/20 06:28:28;;;;;;;3.50;2.10;;;;;;;6.89;90.62;98747.91;109247;275;39001;-66
2023/10/20 06:31:25;;;;;;;3.20;2.40;;;;;;;6.91;90.78;98747.49;109219;275;39629;-66
2023/10/20 06:34:23;;;;;;;3.00;2.10;;;;;;;6.95;90.80;98741.04;109226;275;39151;-69
2023/10/20 06:37:08;;;;;;;2.50;2.20;;;;;;;6.92;90.57;98732.68;108968;275;38365;-71
2023/10/20 06:39:47;;;;;;;4.10;3.20;;;;;;;6.90;90.60;98727.24;109075;275;39517;-70
2023/10/20 06:42:24;;;;;;;4.30;3.50;;;;;;;6.88;90.72;98725.95;109235;275;38438;-69
2023/10/20 06:45:05;;;;;;;4.60;3.40;;;;;;;6.84;90.76;98722.86;109197;275;38184;-66
2023/10/20 06:47:41;;;;;;;4.80;3.80;;;;;;;6.83;90.82;98720.11;109139;275;39089;-69
2023/10/20 06:50:15;;;;;;;2.90;2.50;;;;;;;6.83;90.94;98715.66;109221;275;38643;-70
2023/10/20 06:52:53;;;;;;;3.60;2.70;;;;;;;6.85;90.95;98716.07;109199;275;38469;-66
2023/10/20 06:55:35;;;;;;;4.00;2.70;;;;;;;6.83;91.03;98722.06;109168;275;38146;-66
2023/10/20 06:58:17;;;;;;;3.90;2.60;;;;;;;6.85;91.20;98722.65;109258;275;38409;-70
2023/10/20 07:00:53;;;;;;;3.80;3.00;;;;;;;6.86;91.09;98723.98;109271;275;39302;-70
2023/10/20 07:03:34;;;;;;;6.00;4.60;;;;;;;6.85;91.24;98708.95;109251;275;38318;-69
2023/10/20 07:06:11;;;;;;;5.20;4.10;;;;;;;6.86;91.34;98704.58;109243;275;39630;-69
2023/10/20 07:08:50;;;;;;;4.90;3.30;;;;;;;6.89;91.26;98701.99;109218;275;38331;-67
2023/10/20 07:11:24;;;;;;;;;;;;;;;6.90;91.27;98692.59;109195;275;38276;-66
2023/10/20 07:14:01;;;;;;;4.10;3.10;;;;;;;6.88;91.33;98695.98;109203;275;39406;-66
2023/10/20 07:16:38;;;;;;;4.10;3.20;;;;;;;6.89;91.27;98695.94;109151;275;38462;-66
2023/10/20 07:19:16;;;;;;;;;;;;;;;6.90;91.46;98698.81;109173;275;39340;-69
2023/10/20 07:21:53;;;;;;;5.80;3.60;;;;;;;6.90;91.58;98713.91;109194;275;38251;-71
2023/10/20 07:24:31;;;;;;;3.30;2.70;;;;;;;6.92;91.70;98723.48;109186;275;38200;-66
2023/10/20 07:27:17;;;;;;;4.60;2.40;;;;;;;6.94;91.55;98724.24;109147;275;38757;-67
2023/10/20 07:29:57;;;;;;;3.80;2.40;;;;;;;6.96;91.46;98726.79;109162;275;38615;-66
2023/10/20 07:32:37;;;;;;;5.80;3.20;;;;;;;6.98;91.36;98725.09;109176;275;38227;-67
2023/10/20 07:35:21;;;;;;;4.70;3.50;;;;;;;7.01;91.31;98724.66;109236;275;38694;-66
2023/10/20 07:37:57;;;;;;;5.00;3.50;;;;;;;7.03;91.26;98733.41;109269;269;38242;-69
2023/10/20 07:40:37;;;;;;;4.50;3.30;;;;;;;7.01;91.31;98735.73;108587;275;902932;-70
2023/10/20 07:43:14;;;;;;;6.00;3.20;;;;;;;7.00;91.15;98735.77;109309;275;39462;-66
2023/10/20 07:45:50;;;;;;;5.70;3.40;;;;;;;7.01;91.11;98731.76;109209;275;38455;-66
2023/10/20 07:48:31;;;;;;;3.80;3.00;;;;;;;7.00;91.14;98725.34;109189;275;38161;-69
2023/10/20 07:51:08;;;;;;;8.10;5.10;;;;;;;6.98;90.96;98724.23;109212;275;39502;-70
2023/10/20 07:53:43;;;;;;;10.20;5.90;;;;;;;7.01;91.12;98720.14;109179;275;39498;-70
2023/10/20 07:56:19;;;;;;;12.70;6.30;;;;;;;7.03;91.22;98716.05;109162;275;38176;-69
2023/10/20 07:58:53;;;;;;;9.00;5.00;;;;;;;7.02;91.19;98711.20;109177;275;39826;-69
2023/10/20 08:01:27;;;;;;;8.40;4.40;;;;;;;7.07;91.49;98706.45;109169;275;38290;-71
2023/10/20 08:04:02;;;;;;;7.60;4.70;;;;;;;7.08;91.29;98705.55;109199;275;39131;-70
2023/10/20 08:06:35;;;;;;;4.90;3.00;;;;;;;7.09;91.22;98694.73;109205;275;40390;-70
2023/10/20 08:09:12;;;;;;;5.30;3.60;;;;;;;7.12;91.25;98693.58;109234;275;38497;-70
2023/10/20 08:11:46;;;;;;;4.80;3.30;;;;;;;7.12;91.21;98695.27;109187;275;38581;-70
2023/10/20 08:14:20;;;;;;;5.00;3.50;;;;;;;7.15;91.29;98704.17;109211;275;39479;-70
2023/10/20 08:16:56;;;;;;;5.70;3.10;;;;;;;7.14;91.07;98704.56;109183;275;39930;-69
2023/10/20 08:19:37;;;;;;;4.50;3.30;;;;;;;7.16;91.17;98700.11;109198;275;40837;-70
2023/10/20 08:22:13;;;;;;;7.90;3.60;;;;;;;7.20;91.23;98703.36;109232;275;38423;-70
2023/10/20 08:24:48;;;;;;;5.00;4.00;;;;;;;7.22;91.16;98702.91;109230;275;38445;-66
2023/10/20 08:27:27;;;;;;;6.00;4.20;;;;;;;7.23;91.07;98710.50;109211;275;39191;-66
2023/10/20 08:30:04;;;;;;;5.70;4.30;;;;;;;7.22;90.94;98718.02;109148;275;38976;-66
2023/10/20 08:32:45;;;;;;;5.50;3.90;;;;;;;7.19;90.78;98718.53;109212;275;39447;-70
2023/10/20 08:35:26;;;;;;;7.90;5.50;;;;;;;7.18;90.79;98716.15;109134;275;38356;-71
2023/10/20 08:38:04;;;;;;;7.20;4.80;;;;;;;7.19;90.88;98710.36;109060;275;38741;-67
2023/10/20 08:40:39;;;;;;;7.50;4.90;;;;;;;7.18;90.77;98704.35;109021;275;39735;-67
2023/10/20 08:43:21;;;;;;;7.80;5.70;;;;;;;7.18;90.84;98707.61;109126;275;38167;-67
2023/10/20 08:46:04;;;;;;;8.60;5.00;;;;;;;7.20;90.96;98706.16;109073;275;38745;-65
2023/10/20 08:48:46;;;;;;;7.50;5.10;;;;;;;7.22;90.89;98702.58;109117;275;38810;-69
2023/10/20 08:51:23;;;;;;;7.00;5.00;;;;;;;7.26;91.14;98702.89;109159;275;38617;-69
2023/10/20 08:54:02;;;;;;;9.80;5.70;;;;;;;7.29;90.92;98702.73;109177;275;38482;-66
2023/10/20 08:56:42;;;;;;;9.30;6.30;;;;;;;7.29;90.75;98701.56;109166;275;38468;-66
2023/10/20 08:59:29;;;;;;;7.60;6.10;;;;;;;7.29;90.89;98701.21;109148;275;38760;-67
2023/10/20 09:02:13;;;;;;;8.90;5.90;;;;;;;7.29;90.89;98697.37;109176;275;38266;-66
2023/10/20 09:04:54;;;;;;;6.90;5.00;;;;;;;7.28;90.85;98693.98;109179;275;38476;-69
2023/10/20 09:07:36;;;;;;;7.40;5.50;;;;;;;7.24;90.87;98698.29;109114;275;175207;-67
2023/10/20 09:10:15;;;;;;;7.70;5.60;;;;;;;7.26;90.99;98694.92;109142;275;39222;-67
2023/10/20 09:12:55;;;;;;;;;;;;;;;7.24;90.80;98687.73;109230;275;38617;-70
2023/10/20 09:15:33;;;;;;;9.90;5.70;;;;;;;7.17;91.11;98685.16;109245;275;39053;-70
2023/10/20 09:18:11;;;;;;;8.50;5.20;;;;;;;7.16;91.18;98684.00;109248;275;38180;-70
2023/10/20 09:20:47;;;;;;;8.80;5.30;;;;;;;7.15;91.18;98682.29;109204;275;38652;-70
2023/10/20 09:23:21;;;;;;;12.50;6.50;;;;;;;7.16;91.27;98685.71;109222;275;39463;-70
2023/10/20 09:26:00;;;;;;;11.80;6.90;;;;;;;7.20;91.44;98689.15;109179;275;38116;-70
2023/10/20 09:28:35;;;;;;;14.50;8.10;;;;;;;7.21;91.34;98693.98;109260;275;38297;-70
2023/10/20 09:31:11;;;;;;;14.10;7.90;;;;;;;7.21;91.24;98683.20;109141;275;39002;-70
2023/10/20 09:33:48;;;;;;;15.50;8.80;;;;;;;7.20;91.28;98687.74;109215;275;38144;-67
2023/10/20 09:36:29;;;;;;;16.30;8.30;;;;;;;7.19;91.38;98689.52;109344;275;38578;-67
2023/10/20 09:39:11;;;;;;;13.20;8.00;;;;;;;7.21;91.43;98682.88;109332;275;38229;-70
2023/10/20 09:41:48;;;;;;;;;;;;;;;7.23;91.32;98679.13;109356;275;38582;-71
2023/10/20 09:44:32;;;;;;;18.90;9.50;;;;;;;7.20;91.42;98680.85;109393;275;38972;-70
2023/10/20 09:47:19;;;;;;;19.60;9.50;;;;;;;7.20;91.54;98680.27;109355;275;39664;-70
2023/10/20 09:50:01;;;;;;;13.60;7.60;;;;;;;7.18;91.40;98675.55;109381;275;38467;-68
2023/10/20 09:52:45;;;;;;;7.50;4.80;;;;;;;7.16;91.36;98674.27;109306;275;39636;-70
2023/10/20 09:55:23;;;;;;;12.40;7.20;;;;;;;7.17;91.37;98669.34;109301;275;38328;-67
2023/10/20 09:57:59;;;;;;;16.00;8.00;;;;;;;7.19;91.41;98664.89;109364;275;38404;-66
2023/10/20 10:00:42;;;;;;;11.40;5.40;;;;;;;7.17;91.25;98658.95;109343;275;39514;-67
2023/10/20 10:03:29;;;;;;;10.00;5.20;;;;;;;7.14;91.04;98653.60;109293;275;38707;-67
2023/10/20 10:06:15;;;;;;;7.90;3.90;;;;;;;7.13;91.16;98645.45;109319;275;38327;-67
2023/10/20 10:08:50;;;;;;;5.40;3.50;;;;;;;7.12;91.18;98634.23;109316;275;38227;-69
2023/10/20 10:11:31;;;;;;;5.70;3.20;;;;;;;7.11;91.11;98629.83;109324;275;38899;-72
2023/10/20 10:14:06;;;;;;;7.60;4.10;;;;;;;7.12;91.27;98627.52;109314;275;39667;-68
2023/10/20 10:16:58;;;;;;;5.20;3.90;;;;;;;7.11;91.25;98627.71;109286;275;38448;-67
2023/10/20 10:19:33;;;;;;;8.10;4.70;;;;;;;7.08;91.14;98631.33;109265;275;38158;-69
2023/10/20 10:22:10;;;;;;;5.90;3.60;;;;;;;7.06;91.21;98628.83;109189;275;38273;-71
2023/10/20 10:24:54;;;;;;;9.40;4.80;;;;;;;7.08;91.31;98618.13;109246;275;38282;-70
2023/10/20 10:27:33;;;;;;;6.50;3.90;;;;;;;7.10;91.45;98615.96;109266;275;38455;-69
2023/10/20 10:30:14;;;;;;;8.10;4.70;;;;;;;7.11;91.27;98621.79;109031;275;38178;-67
2023/10/20 10:32:55;;;;;;;6.50;4.30;;;;;;;7.10;91.15;98611.28;109228;275;38345;-70
2023/10/20 10:35:30;;;;;;;6.60;4.00;;;;;;;7.07;91.28;98612.14;109237;275;39649;-71
2023/10/20 10:38:20;;;;;;;7.00;4.10;;;;;;;7.04;91.23;98612.33;109248;275;38410;-68
2023/10/20 10:41:04;;;;;;;14.30;6.10;;;;;;;7.04;91.34;98614.59;109257;275;38652;-67
2023/10/20 10:43:45;;;;;;;12.90;6.60;;;;;;;7.04;91.48;98611.44;109261;275;38147;-70
2023/10/20 10:46:21;;;;;;;12.20;6.20;;;;;;;7.05;91.54;98611.54;109215;275;39418;-70
2023/10/20 10:48:56;;;;;;;23.20;9.90;;;;;;;7.03;91.38;98609.41;108676;275;623839;-72
2023/10/20 10:51:32;;;;;;;13.50;7.50;;;;;;;7.03;91.48;98608.37;109084;275;39716;-71
2023/10/20 10:54:06;;;;;;;8.50;4.90;;;;;;;7.03;91.42;98605.56;109216;275;39494;-72
2023/10/20 10:56:41;;;;;;;11.40;6.70;;;;;;;7.02;91.36;98600.44;109180;275;38405;-70
2023/10/20 10:59:19;;;;;;;11.50;5.90;;;;;;;6.97;91.27;98601.20;109167;275;38699;-69
2023/10/20 11:01:55;;;;;;;16.00;7.20;;;;;;;6.98;91.36;98603.23;109143;275;38455;-68
2023/10/20 11:04:30;;;;;;;12.90;7.00;;;;;;;7.03;91.69;98605.78;109058;275;38762;-71
2023/10/20 11:07:04;;;;;;;15.30;7.50;;;;;;;7.03;91.41;98608.89;109168;275;38721;-71
2023/10/20 11:09:40;;;;;;;16.00;8.30;;;;;;;7.03;91.37;98606.64;109210;275;39520;-71
2023/10/20 11:12:24;;;;;;;11.10;6.20;;;;;;;7.02;91.33;98607.90;109144;275;39323;-72
2023/10/20 11:15:07;;;;;;;7.80;4.70;;;;;;;6.94;91.07;98607.76;109151;275;39346;-68
2023/10/20 11:17:44;;;;;;;8.90;5.10;;;;;;;6.92;91.13;98610.33;109179;275;39690;-69
2023/10/20 11:20:22;;;;;;;9.70;5.50;;;;;;;6.93;91.21;98626.35;109204;275;38414;-67
2023/10/20 11:22:58;;;;;;;6.90;4.40;;;;;;;6.94;91.37;98625.98;109218;275;38363;-71
2023/10/20 11:25:33;;;;;;;8.20;4.80;;;;;;;6.95;91.31;98621.10;109183;275;38120;-72
2023/10/20 11:28:10;;;;;;;8.30;5.50;;;;;;;6.94;91.37;98620.09;109237;275;39726;-70
2023/10/20 11:30:45;;;;;;;12.40;5.00;;;;;;;6.89;91.21;98627.64;109217;275;38224;-70
2023/10/20 11:33:20;;;;;;;9.80;5.40;;;;;;;6.86;91.20;98635.96;109193;275;38220;-68
2023/10/20 11:36:00;;;;;;;9.60;5.40;;;;;;;6.86;91.34;98645.66;109132;275;38451;-67
2023/10/20 11:38:36;;;;;;;8.90;5.10;;;;;;;6.87;91.47;98647.66;109157;275;38950;-70
2023/10/20 11:41:13;;;;;;;9.30;5.50;;;;;;;6.88;91.36;98653.84;109175;275;39380;-70
2023/10/20 11:43:50;;;;;;;11.30;5.30;;;;;;;6.88;91.39;98653.31;109168;275;38283;-68
2023/10/20 11:46:26;;;;;;;;;;;;;;;6.88;91.45;98653.68;109159;275;38224;-66
2023/10/20 11:49:04;;;;;;;11.30;6.40;;;;;;;6.84;91.55;98652.48;109170;275;39542;-72
2023/10/20 11:51:38;;;;;;;15.50;7.20;;;;;;;6.85;91.51;98655.76;109199;275;38764;-71
2023/10/20 11:54:13;;;;;;;13.20;5.90;;;;;;;6.85;91.40;98658.70;109213;275;38816;-70
2023/10/20 11:56:52;;;;;;;15.90;7.30;;;;;;;6.84;91.34;98658.06;109228;275;38488;-72
2023/10/20 11:59:27;;;;;;;11.30;6.70;;;;;;;6.84;91.25;98662.19;109226;275;38748;-71
2023/10/20 12:02:05;;;;;;;17.70;9.30;;;;;;;6.82;91.39;98661.06;109292;275;38305;-70
2023/10/20 12:04:45;;;;;;;20.20;9.30;;;;;;;6.81;91.24;98660.64;109236;275;39128;-70
2023/10/20 12:07:20;;;;;;;17.00;9.10;;;;;;;6.80;91.33;98658.60;109058;275;39636;-70
2023/10/20 12:10:00;;;;;;;18.40;9.40;;;;;;;6.82;91.30;98659.21;109145;275;38899;-68
2023/10/20 12:12:35;;;;;;;15.70;7.00;;;;;;;6.85;91.42;98653.83;109236;275;38575;-68
2023/10/20 12:15:14;;;;;;;10.30;5.80;;;;;;;6.89;91.42;98650.67;109163;275;38453;-67
2023/10/20 12:17:51;;;;;;;8.40;4.80;;;;;;;6.87;91.02;98641.25;109169;275;39303;-72
2023/10/20 12:20:28;;;;;;;8.50;4.50;;;;;;;6.85;91.12;98652.10;109125;275;38445;-70
2023/10/20 12:23:07;;;;;;;11.00;4.50;;;;;;;6.84;91.09;98651.65;109180;275;38479;-67
2023/10/20 12:25:49;;;;;;;11.40;5.40;;;;;;;6.82;91.06;98650.53;109172;275;38442;-66
2023/10/20 12:28:28;;;;;;;18.40;5.60;;;;;;;6.78;91.02;98653.70;109180;275;39360;-67
2023/10/20 12:31:02;;;;;;;11.60;4.90;;;;;;;6.76;91.14;98655.84;109009;275;188860;-67
2023/10/20 12:33:44;;;;;;;10.90;5.70;;;;;;;6.75;91.15;98646.70;109062;275;39529;-70
2023/10/20 12:36:19;;;;;;;6.80;4.30;;;;;;;6.75;91.28;98645.65;109140;275;38131;-70
2023/10/20 12:38:55;;;;;;;7.40;4.30;;;;;;;6.77;91.28;98641.79;109262;275;38366;-67
2023/10/20 12:41:45;;;;;;;7.20;4.30;;;;;;;6.77;91.21;98640.56;109150;275;38389;-69
2023/10/20 12:44:29;;;;;;;8.20;5.00;;;;;;;6.79;91.18;98639.27;108911;276;189338;-68
2023/10/20 12:47:05;;;;;;;10.50;5.10;;;;;;;6.81;91.25;98638.79;109083;275;175630;-70
2023/10/20 12:49:41;;;;;;;8.50;4.80;;;;;;;6.84;91.18;98642.48;109261;275;38506;-65
2023/10/20 12:52:22;;;;;;;8.80;4.80;;;;;;;6.81;91.01;98643.84;109227;275;38762;-66
2023/10/20 12:55:08;;;;;;;9.40;5.90;;;;;;;6.78;90.95;98642.39;109140;275;38224;-69